sensor_id;sensor_type;location;lat;lon;timestamp;P1;durP1;ratioP1;P2;durP2;ratioP2
38693;SDS011;24447;43.460;25.744;2023-04-03T00:01:14;3.55;;;2.50;;
38693;SDS011;24447;43.460;25.744;2023-04-03T00:03:40;4.18;;;2.35;;
38693;SDS011;24447;43.460;25.744;2023-04-03T00:06:06;8.00;;;2.58;;
38693;SDS011;24447;43.460;25.744;2023-04-03T00:08:34;5.43;;;2.47;;
38693;SDS011;24447;43.460;25.744;2023-04-03T00:11:00;7.80;;;3.00;;
38693;SDS011;24447;43.460;25.744;2023-04-03T00:13:26;11.32;;;4.53;;
38693;SDS011;24447;43.460;25.744;2023-04-03T00:15:53;15.13;;;5.20;;
38693;SDS011;24447;43.460;25.744;2023-04-03T00:18:19;9.23;;;3.63;;
38693;SDS011;24447;43.460;25.744;2023-04-03T00:20:45;11.63;;;4.03;;
38693;SDS011;24447;43.460;25.744;2023-04-03T00:23:11;6.15;;;3.08;;
38693;SDS011;24447;43.460;25.744;2023-04-03T00:25:37;7.53;;;3.10;;
38693;SDS011;24447;43.460;25.744;2023-04-03T00:28:03;5.93;;;3.15;;
38693;SDS011;24447;43.460;25.744;2023-04-03T00:30:30;10.63;;;3.63;;
38693;SDS011;24447;43.460;25.744;2023-04-03T00:32:56;4.32;;;2.85;;
38693;SDS011;24447;43.460;25.744;2023-04-03T00:35:22;8.27;;;2.70;;
38693;SDS011;24447;43.460;25.744;2023-04-03T00:37:52;7.20;;;3.03;;
38693;SDS011;24447;43.460;25.744;2023-04-03T00:40:20;6.13;;;3.30;;
38693;SDS011;24447;43.460;25.744;2023-04-03T00:42:48;6.97;;;3.00;;
38693;SDS011;24447;43.460;25.744;2023-04-03T00:47:43;3.28;;;2.10;;
38693;SDS011;24447;43.460;25.744;2023-04-03T00:50:09;5.15;;;2.47;;
38693;SDS011;24447;43.460;25.744;2023-04-03T00:52:35;3.78;;;2.17;;
38693;SDS011;24447;43.460;25.744;2023-04-03T00:55:04;3.83;;;2.70;;
38693;SDS011;24447;43.460;25.744;2023-04-03T00:57:31;5.55;;;2.83;;
38693;SDS011;24447;43.460;25.744;2023-04-03T00:59:59;3.47;;;2.63;;
38693;SDS011;24447;43.460;25.744;2023-04-03T01:02:29;4.20;;;2.50;;
38693;SDS011;24447;43.460;25.744;2023-04-03T01:04:55;4.85;;;2.45;;
38693;SDS011;24447;43.460;25.744;2023-04-03T01:07:26;4.97;;;2.65;;
38693;SDS011;24447;43.460;25.744;2023-04-03T01:09:58;5.68;;;2.95;;
38693;SDS011;24447;43.460;25.744;2023-04-03T01:14:56;6.57;;;2.70;;
38693;SDS011;24447;43.460;25.744;2023-04-03T01:25:45;5.55;;;2.78;;
38693;SDS011;24447;43.460;25.744;2023-04-03T01:28:14;3.63;;;1.92;;
38693;SDS011;24447;43.460;25.744;2023-04-03T01:33:32;3.17;;;2.50;;
38693;SDS011;24447;43.460;25.744;2023-04-03T01:35:58;5.15;;;2.63;;
38693;SDS011;24447;43.460;25.744;2023-04-03T01:38:24;6.50;;;2.35;;
38693;SDS011;24447;43.460;25.744;2023-04-03T01:40:50;3.33;;;2.15;;
38693;SDS011;24447;43.460;25.744;2023-04-03T01:43:16;6.90;;;2.10;;
38693;SDS011;24447;43.460;25.744;2023-04-03T01:45:42;7.22;;;3.10;;
38693;SDS011;24447;43.460;25.744;2023-04-03T01:48:09;8.27;;;3.22;;
38693;SDS011;24447;43.460;25.744;2023-04-03T01:50:34;6.80;;;3.40;;
38693;SDS011;24447;43.460;25.744;2023-04-03T01:53:00;6.22;;;2.90;;
38693;SDS011;24447;43.460;25.744;2023-04-03T01:55:26;7.97;;;3.15;;
38693;SDS011;24447;43.460;25.744;2023-04-03T01:57:52;6.20;;;3.50;;
38693;SDS011;24447;43.460;25.744;2023-04-03T02:00:18;6.90;;;3.10;;
38693;SDS011;24447;43.460;25.744;2023-04-03T02:02:44;6.32;;;3.00;;
38693;SDS011;24447;43.460;25.744;2023-04-03T02:05:10;6.30;;;3.00;;
38693;SDS011;24447;43.460;25.744;2023-04-03T02:07:36;7.13;;;3.03;;
38693;SDS011;24447;43.460;25.744;2023-04-03T02:10:02;6.28;;;2.55;;
38693;SDS011;24447;43.460;25.744;2023-04-03T02:12:28;5.88;;;2.92;;
38693;SDS011;24447;43.460;25.744;2023-04-03T02:14:54;4.55;;;3.10;;
38693;SDS011;24447;43.460;25.744;2023-04-03T02:17:20;4.22;;;2.42;;
38693;SDS011;24447;43.460;25.744;2023-04-03T02:19:46;5.20;;;2.70;;
38693;SDS011;24447;43.460;25.744;2023-04-03T02:22:12;4.72;;;2.60;;
38693;SDS011;24447;43.460;25.744;2023-04-03T02:24:38;6.40;;;3.35;;
38693;SDS011;24447;43.460;25.744;2023-04-03T02:27:05;10.73;;;3.35;;
38693;SDS011;24447;43.460;25.744;2023-04-03T02:29:31;7.00;;;3.20;;
38693;SDS011;24447;43.460;25.744;2023-04-03T02:31:57;11.30;;;4.75;;
38693;SDS011;24447;43.460;25.744;2023-04-03T02:34:23;11.00;;;3.75;;
38693;SDS011;24447;43.460;25.744;2023-04-03T02:36:49;9.32;;;4.15;;
38693;SDS011;24447;43.460;25.744;2023-04-03T02:39:15;9.70;;;3.40;;
38693;SDS011;24447;43.460;25.744;2023-04-03T02:41:41;9.43;;;3.53;;
38693;SDS011;24447;43.460;25.744;2023-04-03T02:44:08;6.90;;;3.00;;
38693;SDS011;24447;43.460;25.744;2023-04-03T02:46:37;8.13;;;3.35;;
38693;SDS011;24447;43.460;25.744;2023-04-03T02:49:03;9.48;;;3.45;;
38693;SDS011;24447;43.460;25.744;2023-04-03T02:51:29;5.97;;;3.05;;
38693;SDS011;24447;43.460;25.744;2023-04-03T02:53:55;6.60;;;3.17;;
38693;SDS011;24447;43.460;25.744;2023-04-03T02:56:21;6.38;;;3.08;;
38693;SDS011;24447;43.460;25.744;2023-04-03T02:58:47;9.50;;;3.75;;
38693;SDS011;24447;43.460;25.744;2023-04-03T03:01:13;11.73;;;3.30;;
38693;SDS011;24447;43.460;25.744;2023-04-03T03:03:39;4.72;;;2.97;;
38693;SDS011;24447;43.460;25.744;2023-04-03T03:06:15;5.50;;;3.28;;
38693;SDS011;24447;43.460;25.744;2023-04-03T03:08:43;10.55;;;4.32;;
38693;SDS011;24447;43.460;25.744;2023-04-03T03:11:09;5.10;;;3.22;;
38693;SDS011;24447;43.460;25.744;2023-04-03T03:13:35;9.52;;;3.75;;
38693;SDS011;24447;43.460;25.744;2023-04-03T03:16:02;6.18;;;2.80;;
38693;SDS011;24447;43.460;25.744;2023-04-03T03:18:28;9.60;;;4.72;;
38693;SDS011;24447;43.460;25.744;2023-04-03T03:20:55;10.90;;;3.00;;
38693;SDS011;24447;43.460;25.744;2023-04-03T03:23:22;15.07;;;6.40;;
38693;SDS011;24447;43.460;25.744;2023-04-03T03:25:53;19.75;;;6.97;;
38693;SDS011;24447;43.460;25.744;2023-04-03T03:28:23;20.63;;;7.65;;
38693;SDS011;24447;43.460;25.744;2023-04-03T03:30:49;30.70;;;8.43;;
38693;SDS011;24447;43.460;25.744;2023-04-03T03:33:15;17.95;;;7.03;;
38693;SDS011;24447;43.460;25.744;2023-04-03T03:35:42;14.90;;;5.70;;
38693;SDS011;24447;43.460;25.744;2023-04-03T03:38:08;6.93;;;3.50;;
38693;SDS011;24447;43.460;25.744;2023-04-03T03:40:34;9.05;;;3.35;;
38693;SDS011;24447;43.460;25.744;2023-04-03T03:43:00;12.23;;;5.55;;
38693;SDS011;24447;43.460;25.744;2023-04-03T03:45:26;9.85;;;4.93;;
38693;SDS011;24447;43.460;25.744;2023-04-03T03:47:52;15.10;;;5.97;;
38693;SDS011;24447;43.460;25.744;2023-04-03T03:50:18;15.30;;;5.53;;
38693;SDS011;24447;43.460;25.744;2023-04-03T03:52:44;13.93;;;5.13;;
38693;SDS011;24447;43.460;25.744;2023-04-03T03:55:10;11.95;;;4.90;;
38693;SDS011;24447;43.460;25.744;2023-04-03T03:57:36;14.50;;;4.60;;
38693;SDS011;24447;43.460;25.744;2023-04-03T04:00:02;14.07;;;4.25;;
38693;SDS011;24447;43.460;25.744;2023-04-03T04:02:29;8.25;;;4.10;;
38693;SDS011;24447;43.460;25.744;2023-04-03T04:04:55;12.00;;;3.67;;
38693;SDS011;24447;43.460;25.744;2023-04-03T04:07:21;12.40;;;3.92;;
38693;SDS011;24447;43.460;25.744;2023-04-03T04:09:47;14.20;;;4.80;;
38693;SDS011;24447;43.460;25.744;2023-04-03T04:12:13;12.23;;;4.90;;
38693;SDS011;24447;43.460;25.744;2023-04-03T04:14:39;14.15;;;5.20;;
38693;SDS011;24447;43.460;25.744;2023-04-03T04:17:05;9.20;;;4.32;;
38693;SDS011;24447;43.460;25.744;2023-04-03T04:19:31;14.77;;;5.18;;
38693;SDS011;24447;43.460;25.744;2023-04-03T04:21:58;12.77;;;5.47;;
38693;SDS011;24447;43.460;25.744;2023-04-03T04:24:24;13.55;;;4.63;;
38693;SDS011;24447;43.460;25.744;2023-04-03T04:26:50;9.63;;;4.95;;
38693;SDS011;24447;43.460;25.744;2023-04-03T04:29:16;17.52;;;7.65;;
38693;SDS011;24447;43.460;25.744;2023-04-03T04:31:42;24.58;;;9.32;;
38693;SDS011;24447;43.460;25.744;2023-04-03T04:34:08;16.50;;;6.15;;
38693;SDS011;24447;43.460;25.744;2023-04-03T04:36:34;24.23;;;10.05;;
38693;SDS011;24447;43.460;25.744;2023-04-03T04:39:00;18.85;;;6.93;;
38693;SDS011;24447;43.460;25.744;2023-04-03T04:41:26;17.33;;;7.45;;
38693;SDS011;24447;43.460;25.744;2023-04-03T04:43:52;16.73;;;6.25;;
38693;SDS011;24447;43.460;25.744;2023-04-03T04:46:18;40.78;;;21.83;;
38693;SDS011;24447;43.460;25.744;2023-04-03T04:48:44;19.80;;;8.85;;
38693;SDS011;24447;43.460;25.744;2023-04-03T04:51:10;13.20;;;5.93;;
38693;SDS011;24447;43.460;25.744;2023-04-03T04:53:36;15.23;;;7.03;;
38693;SDS011;24447;43.460;25.744;2023-04-03T04:56:03;19.17;;;10.10;;
38693;SDS011;24447;43.460;25.744;2023-04-03T04:58:29;17.83;;;7.70;;
38693;SDS011;24447;43.460;25.744;2023-04-03T05:01:02;23.38;;;10.48;;
38693;SDS011;24447;43.460;25.744;2023-04-03T05:03:31;20.38;;;8.85;;
38693;SDS011;24447;43.460;25.744;2023-04-03T05:06:01;19.35;;;8.43;;
38693;SDS011;24447;43.460;25.744;2023-04-03T05:08:27;14.55;;;6.63;;
38693;SDS011;24447;43.460;25.744;2023-04-03T05:10:53;13.00;;;6.13;;
38693;SDS011;24447;43.460;25.744;2023-04-03T05:13:19;11.20;;;4.65;;
38693;SDS011;24447;43.460;25.744;2023-04-03T05:15:46;6.78;;;3.38;;
38693;SDS011;24447;43.460;25.744;2023-04-03T05:18:12;9.32;;;4.30;;
38693;SDS011;24447;43.460;25.744;2023-04-03T05:20:38;14.20;;;4.97;;
38693;SDS011;24447;43.460;25.744;2023-04-03T05:23:04;21.73;;;6.28;;
38693;SDS011;24447;43.460;25.744;2023-04-03T05:25:30;11.93;;;5.03;;
38693;SDS011;24447;43.460;25.744;2023-04-03T05:27:56;11.68;;;5.25;;
38693;SDS011;24447;43.460;25.744;2023-04-03T05:30:22;8.23;;;4.35;;
38693;SDS011;24447;43.460;25.744;2023-04-03T05:32:48;7.25;;;3.40;;
38693;SDS011;24447;43.460;25.744;2023-04-03T05:35:14;4.50;;;3.05;;
38693;SDS011;24447;43.460;25.744;2023-04-03T05:37:40;4.65;;;2.78;;
38693;SDS011;24447;43.460;25.744;2023-04-03T05:40:06;8.63;;;2.35;;
38693;SDS011;24447;43.460;25.744;2023-04-03T05:42:33;8.68;;;3.85;;
38693;SDS011;24447;43.460;25.744;2023-04-03T05:44:59;11.18;;;4.60;;
38693;SDS011;24447;43.460;25.744;2023-04-03T05:47:25;7.25;;;3.67;;
38693;SDS011;24447;43.460;25.744;2023-04-03T05:49:51;8.95;;;4.07;;
38693;SDS011;24447;43.460;25.744;2023-04-03T05:52:20;19.20;;;7.20;;
38693;SDS011;24447;43.460;25.744;2023-04-03T05:54:48;12.82;;;5.05;;
38693;SDS011;24447;43.460;25.744;2023-04-03T05:57:14;17.77;;;5.05;;
38693;SDS011;24447;43.460;25.744;2023-04-03T05:59:44;19.33;;;5.65;;
38693;SDS011;24447;43.460;25.744;2023-04-03T06:02:17;19.83;;;4.47;;
38693;SDS011;24447;43.460;25.744;2023-04-03T06:04:46;16.77;;;6.07;;
38693;SDS011;24447;43.460;25.744;2023-04-03T06:07:19;29.42;;;9.77;;
38693;SDS011;24447;43.460;25.744;2023-04-03T06:09:47;23.40;;;9.75;;
38693;SDS011;24447;43.460;25.744;2023-04-03T06:12:14;29.48;;;14.43;;
38693;SDS011;24447;43.460;25.744;2023-04-03T06:14:41;42.33;;;18.70;;
38693;SDS011;24447;43.460;25.744;2023-04-03T06:17:07;31.85;;;15.10;;
38693;SDS011;24447;43.460;25.744;2023-04-03T06:19:34;34.15;;;16.92;;
38693;SDS011;24447;43.460;25.744;2023-04-03T06:22:00;24.10;;;12.38;;
38693;SDS011;24447;43.460;25.744;2023-04-03T06:24:26;39.05;;;13.30;;
38693;SDS011;24447;43.460;25.744;2023-04-03T06:26:52;27.67;;;10.82;;
38693;SDS011;24447;43.460;25.744;2023-04-03T06:29:18;19.73;;;8.35;;
38693;SDS011;24447;43.460;25.744;2023-04-03T06:31:45;14.95;;;6.72;;
38693;SDS011;24447;43.460;25.744;2023-04-03T06:34:11;14.20;;;6.68;;
38693;SDS011;24447;43.460;25.744;2023-04-03T06:36:38;15.32;;;7.03;;
38693;SDS011;24447;43.460;25.744;2023-04-03T06:39:05;11.90;;;5.68;;
38693;SDS011;24447;43.460;25.744;2023-04-03T06:41:31;12.52;;;4.88;;
38693;SDS011;24447;43.460;25.744;2023-04-03T06:43:58;9.10;;;4.22;;
38693;SDS011;24447;43.460;25.744;2023-04-03T06:46:24;6.85;;;3.47;;
38693;SDS011;24447;43.460;25.744;2023-04-03T06:48:51;5.80;;;3.35;;
38693;SDS011;24447;43.460;25.744;2023-04-03T06:51:21;3.50;;;2.70;;
38693;SDS011;24447;43.460;25.744;2023-04-03T06:53:55;6.30;;;2.70;;
38693;SDS011;24447;43.460;25.744;2023-04-03T06:56:23;5.68;;;3.40;;
38693;SDS011;24447;43.460;25.744;2023-04-03T06:58:50;6.43;;;3.30;;
38693;SDS011;24447;43.460;25.744;2023-04-03T07:01:17;6.18;;;2.70;;
38693;SDS011;24447;43.460;25.744;2023-04-03T07:03:47;3.63;;;2.60;;
38693;SDS011;24447;43.460;25.744;2023-04-03T07:06:14;4.85;;;2.90;;
38693;SDS011;24447;43.460;25.744;2023-04-03T07:08:41;6.40;;;2.85;;
38693;SDS011;24447;43.460;25.744;2023-04-03T07:11:07;3.28;;;2.40;;
38693;SDS011;24447;43.460;25.744;2023-04-03T07:13:34;11.68;;;3.83;;
38693;SDS011;24447;43.460;25.744;2023-04-03T07:16:01;3.88;;;2.55;;
38693;SDS011;24447;43.460;25.744;2023-04-03T07:18:29;6.85;;;3.50;;
38693;SDS011;24447;43.460;25.744;2023-04-03T07:20:55;6.43;;;3.20;;
38693;SDS011;24447;43.460;25.744;2023-04-03T07:23:21;5.47;;;2.90;;
38693;SDS011;24447;43.460;25.744;2023-04-03T07:25:48;4.05;;;2.25;;
38693;SDS011;24447;43.460;25.744;2023-04-03T07:28:15;5.45;;;3.15;;
38693;SDS011;24447;43.460;25.744;2023-04-03T07:30:52;6.18;;;3.03;;
38693;SDS011;24447;43.460;25.744;2023-04-03T07:33:21;2.80;;;2.13;;
38693;SDS011;24447;43.460;25.744;2023-04-03T07:35:48;4.55;;;2.70;;
38693;SDS011;24447;43.460;25.744;2023-04-03T07:38:15;5.72;;;2.35;;
38693;SDS011;24447;43.460;25.744;2023-04-03T07:40:45;3.67;;;2.72;;
38693;SDS011;24447;43.460;25.744;2023-04-03T07:43:12;6.82;;;2.85;;
38693;SDS011;24447;43.460;25.744;2023-04-03T07:45:38;5.72;;;3.03;;
38693;SDS011;24447;43.460;25.744;2023-04-03T07:48:04;5.03;;;3.22;;
38693;SDS011;24447;43.460;25.744;2023-04-03T07:50:30;3.55;;;2.38;;
38693;SDS011;24447;43.460;25.744;2023-04-03T07:52:57;4.47;;;2.97;;
38693;SDS011;24447;43.460;25.744;2023-04-03T07:55:23;13.18;;;3.47;;
38693;SDS011;24447;43.460;25.744;2023-04-03T07:57:50;7.43;;;3.10;;
38693;SDS011;24447;43.460;25.744;2023-04-03T08:00:16;7.43;;;3.72;;
38693;SDS011;24447;43.460;25.744;2023-04-03T08:02:44;5.18;;;2.83;;
38693;SDS011;24447;43.460;25.744;2023-04-03T08:05:15;4.18;;;2.60;;
38693;SDS011;24447;43.460;25.744;2023-04-03T08:07:42;5.13;;;2.80;;
38693;SDS011;24447;43.460;25.744;2023-04-03T08:10:08;5.13;;;3.03;;
38693;SDS011;24447;43.460;25.744;2023-04-03T08:12:34;3.60;;;2.25;;
38693;SDS011;24447;43.460;25.744;2023-04-03T08:15:02;6.70;;;2.72;;
38693;SDS011;24447;43.460;25.744;2023-04-03T08:17:28;4.82;;;2.70;;
38693;SDS011;24447;43.460;25.744;2023-04-03T08:19:54;2.38;;;2.03;;
38693;SDS011;24447;43.460;25.744;2023-04-03T08:22:20;4.80;;;2.65;;
38693;SDS011;24447;43.460;25.744;2023-04-03T08:24:46;4.30;;;2.55;;
38693;SDS011;24447;43.460;25.744;2023-04-03T08:27:12;5.70;;;2.75;;
38693;SDS011;24447;43.460;25.744;2023-04-03T08:29:38;4.78;;;2.90;;
38693;SDS011;24447;43.460;25.744;2023-04-03T08:32:04;5.75;;;2.95;;
38693;SDS011;24447;43.460;25.744;2023-04-03T08:34:31;4.10;;;2.40;;
38693;SDS011;24447;43.460;25.744;2023-04-03T08:37:00;3.70;;;2.40;;
38693;SDS011;24447;43.460;25.744;2023-04-03T08:39:27;6.15;;;2.08;;
38693;SDS011;24447;43.460;25.744;2023-04-03T08:41:53;4.25;;;2.47;;
38693;SDS011;24447;43.460;25.744;2023-04-03T08:44:38;2.33;;;2.05;;
38693;SDS011;24447;43.460;25.744;2023-04-03T08:49:48;4.45;;;2.30;;
38693;SDS011;24447;43.460;25.744;2023-04-03T08:52:18;2.30;;;2.03;;
38693;SDS011;24447;43.460;25.744;2023-04-03T08:57:29;2.13;;;1.70;;
38693;SDS011;24447;43.460;25.744;2023-04-03T09:00:00;5.15;;;2.53;;
38693;SDS011;24447;43.460;25.744;2023-04-03T09:02:34;6.78;;;2.38;;
38693;SDS011;24447;43.460;25.744;2023-04-03T09:05:02;5.78;;;2.72;;
38693;SDS011;24447;43.460;25.744;2023-04-03T09:07:39;2.88;;;2.25;;
38693;SDS011;24447;43.460;25.744;2023-04-03T09:10:23;7.97;;;3.03;;
38693;SDS011;24447;43.460;25.744;2023-04-03T09:12:53;4.35;;;2.47;;
38693;SDS011;24447;43.460;25.744;2023-04-03T09:15:25;4.57;;;2.00;;
38693;SDS011;24447;43.460;25.744;2023-04-03T09:20:31;6.50;;;2.38;;
38693;SDS011;24447;43.460;25.744;2023-04-03T09:23:08;4.28;;;2.17;;
38693;SDS011;24447;43.460;25.744;2023-04-03T09:28:52;3.55;;;2.30;;
38693;SDS011;24447;43.460;25.744;2023-04-03T09:31:21;4.82;;;2.90;;
38693;SDS011;24447;43.460;25.744;2023-04-03T09:33:54;5.85;;;2.42;;
38693;SDS011;24447;43.460;25.744;2023-04-03T09:36:39;5.70;;;2.78;;
38693;SDS011;24447;43.460;25.744;2023-04-03T09:39:17;8.90;;;3.38;;
38693;SDS011;24447;43.460;25.744;2023-04-03T09:41:58;8.23;;;3.58;;
38693;SDS011;24447;43.460;25.744;2023-04-03T09:44:37;6.57;;;2.40;;
38693;SDS011;24447;43.460;25.744;2023-04-03T09:47:17;5.70;;;2.33;;
38693;SDS011;24447;43.460;25.744;2023-04-03T09:49:44;3.92;;;2.38;;
38693;SDS011;24447;43.460;25.744;2023-04-03T09:52:22;3.15;;;2.28;;
38693;SDS011;24447;43.460;25.744;2023-04-03T09:54:50;3.85;;;2.35;;
38693;SDS011;24447;43.460;25.744;2023-04-03T09:57:16;2.58;;;2.08;;
38693;SDS011;24447;43.460;25.744;2023-04-03T10:00:01;6.35;;;2.90;;
38693;SDS011;24447;43.460;25.744;2023-04-03T10:05:25;5.35;;;2.85;;
38693;SDS011;24447;43.460;25.744;2023-04-03T10:08:07;5.78;;;2.63;;
38693;SDS011;24447;43.460;25.744;2023-04-03T10:10:39;3.88;;;2.47;;
38693;SDS011;24447;43.460;25.744;2023-04-03T10:13:12;5.78;;;2.85;;
38693;SDS011;24447;43.460;25.744;2023-04-03T10:15:40;2.88;;;1.90;;
38693;SDS011;24447;43.460;25.744;2023-04-03T10:18:14;9.93;;;3.75;;
38693;SDS011;24447;43.460;25.744;2023-04-03T10:21:10;5.18;;;2.53;;
38693;SDS011;24447;43.460;25.744;2023-04-03T10:23:44;4.88;;;2.40;;
38693;SDS011;24447;43.460;25.744;2023-04-03T10:28:57;2.30;;;2.03;;
38693;SDS011;24447;43.460;25.744;2023-04-03T10:34:23;3.30;;;2.10;;
38693;SDS011;24447;43.460;25.744;2023-04-03T10:36:57;4.95;;;2.10;;
38693;SDS011;24447;43.460;25.744;2023-04-03T10:58:48;5.00;;;2.83;;
38693;SDS011;24447;43.460;25.744;2023-04-03T11:01:23;4.65;;;2.40;;
38693;SDS011;24447;43.460;25.744;2023-04-03T11:03:54;2.95;;;1.92;;
38693;SDS011;24447;43.460;25.744;2023-04-03T11:06:23;2.88;;;2.05;;
38693;SDS011;24447;43.460;25.744;2023-04-03T11:08:53;4.55;;;2.47;;
38693;SDS011;24447;43.460;25.744;2023-04-03T11:11:24;3.70;;;1.50;;
38693;SDS011;24447;43.460;25.744;2023-04-03T11:13:54;1.65;;;1.10;;
38693;SDS011;24447;43.460;25.744;2023-04-03T11:16:30;2.97;;;1.05;;
38693;SDS011;24447;43.460;25.744;2023-04-03T11:19:01;1.53;;;1.10;;
38693;SDS011;24447;43.460;25.744;2023-04-03T11:21:29;1.17;;;0.95;;
38693;SDS011;24447;43.460;25.744;2023-04-03T11:24:00;1.35;;;1.23;;
38693;SDS011;24447;43.460;25.744;2023-04-03T11:26:30;2.15;;;1.27;;
38693;SDS011;24447;43.460;25.744;2023-04-03T11:29:08;2.65;;;1.08;;
38693;SDS011;24447;43.460;25.744;2023-04-03T11:37:15;1.40;;;1.30;;
38693;SDS011;24447;43.460;25.744;2023-04-03T11:40:03;2.88;;;1.27;;
38693;SDS011;24447;43.460;25.744;2023-04-03T11:42:35;0.98;;;0.98;;
38693;SDS011;24447;43.460;25.744;2023-04-03T11:50:31;3.30;;;1.73;;
38693;SDS011;24447;43.460;25.744;2023-04-03T11:53:24;4.15;;;2.33;;
38693;SDS011;24447;43.460;25.744;2023-04-03T12:01:49;2.85;;;1.58;;
38693;SDS011;24447;43.460;25.744;2023-04-03T12:04:17;6.13;;;2.30;;
38693;SDS011;24447;43.460;25.744;2023-04-03T12:09:24;1.80;;;1.25;;
38693;SDS011;24447;43.460;25.744;2023-04-03T12:11:51;6.53;;;1.75;;
38693;SDS011;24447;43.460;25.744;2023-04-03T12:14:17;3.38;;;1.70;;
38693;SDS011;24447;43.460;25.744;2023-04-03T12:16:44;2.13;;;1.15;;
38693;SDS011;24447;43.460;25.744;2023-04-03T12:32:46;5.05;;;0.90;;
38693;SDS011;24447;43.460;25.744;2023-04-03T12:46:42;1.42;;;0.93;;
38693;SDS011;24447;43.460;25.744;2023-04-03T12:51:54;0.57;;;0.57;;
38693;SDS011;24447;43.460;25.744;2023-04-03T12:57:09;5.78;;;2.22;;
38693;SDS011;24447;43.460;25.744;2023-04-03T12:59:42;2.78;;;1.00;;
38693;SDS011;24447;43.460;25.744;2023-04-03T13:02:15;7.05;;;2.90;;
38693;SDS011;24447;43.460;25.744;2023-04-03T13:04:46;10.43;;;3.63;;
38693;SDS011;24447;43.460;25.744;2023-04-03T13:07:20;14.60;;;4.28;;
38693;SDS011;24447;43.460;25.744;2023-04-03T13:10:09;7.70;;;3.47;;
38693;SDS011;24447;43.460;25.744;2023-04-03T13:13:26;15.77;;;6.15;;
38693;SDS011;24447;43.460;25.744;2023-04-03T13:15:42;6.65;;;3.03;;
38693;SDS011;24447;43.460;25.744;2023-04-03T13:18:30;6.95;;;2.95;;
38693;SDS011;24447;43.460;25.744;2023-04-03T13:21:04;4.28;;;1.98;;
38693;SDS011;24447;43.460;25.744;2023-04-03T13:23:32;2.85;;;1.48;;
38693;SDS011;24447;43.460;25.744;2023-04-03T13:26:00;4.45;;;1.73;;
38693;SDS011;24447;43.460;25.744;2023-04-03T13:28:28;2.40;;;1.73;;
38693;SDS011;24447;43.460;25.744;2023-04-03T13:30:57;3.22;;;1.55;;
38693;SDS011;24447;43.460;25.744;2023-04-03T13:33:28;8.90;;;3.72;;
38693;SDS011;24447;43.460;25.744;2023-04-03T13:36:16;2.45;;;1.73;;
38693;SDS011;24447;43.460;25.744;2023-04-03T13:38:44;8.95;;;2.97;;
38693;SDS011;24447;43.460;25.744;2023-04-03T13:41:30;3.00;;;1.55;;
38693;SDS011;24447;43.460;25.744;2023-04-03T13:44:14;7.90;;;2.85;;
38693;SDS011;24447;43.460;25.744;2023-04-03T13:46:41;6.32;;;2.50;;
38693;SDS011;24447;43.460;25.744;2023-04-03T13:49:19;10.82;;;3.17;;
38693;SDS011;24447;43.460;25.744;2023-04-03T13:51:56;7.18;;;2.80;;
38693;SDS011;24447;43.460;25.744;2023-04-03T13:56:53;5.70;;;1.90;;
38693;SDS011;24447;43.460;25.744;2023-04-03T13:59:31;1.98;;;1.80;;
38693;SDS011;24447;43.460;25.744;2023-04-03T14:07:13;15.70;;;6.00;;
38693;SDS011;24447;43.460;25.744;2023-04-03T14:12:08;12.32;;;5.15;;
38693;SDS011;24447;43.460;25.744;2023-04-03T14:14:38;12.07;;;5.22;;
38693;SDS011;24447;43.460;25.744;2023-04-03T14:17:16;14.20;;;4.40;;
38693;SDS011;24447;43.460;25.744;2023-04-03T14:19:43;12.23;;;5.00;;
38693;SDS011;24447;43.460;25.744;2023-04-03T14:22:30;17.70;;;7.00;;
38693;SDS011;24447;43.460;25.744;2023-04-03T14:24:59;11.73;;;5.35;;
38693;SDS011;24447;43.460;25.744;2023-04-03T14:27:27;12.63;;;5.60;;
38693;SDS011;24447;43.460;25.744;2023-04-03T14:29:55;19.33;;;7.07;;
38693;SDS011;24447;43.460;25.744;2023-04-03T14:32:22;33.95;;;15.02;;
38693;SDS011;24447;43.460;25.744;2023-04-03T14:34:49;32.63;;;13.50;;
38693;SDS011;24447;43.460;25.744;2023-04-03T14:37:18;26.92;;;11.45;;
38693;SDS011;24447;43.460;25.744;2023-04-03T14:39:46;20.90;;;7.47;;
38693;SDS011;24447;43.460;25.744;2023-04-03T14:42:14;20.23;;;7.57;;
38693;SDS011;24447;43.460;25.744;2023-04-03T14:44:42;24.08;;;9.25;;
38693;SDS011;24447;43.460;25.744;2023-04-03T14:47:15;17.98;;;6.70;;
38693;SDS011;24447;43.460;25.744;2023-04-03T14:49:44;8.45;;;4.07;;
38693;SDS011;24447;43.460;25.744;2023-04-03T14:52:16;16.60;;;6.05;;
38693;SDS011;24447;43.460;25.744;2023-04-03T14:54:45;29.40;;;12.80;;
38693;SDS011;24447;43.460;25.744;2023-04-03T14:57:11;19.38;;;6.40;;
38693;SDS011;24447;43.460;25.744;2023-04-03T14:59:39;15.60;;;6.55;;
38693;SDS011;24447;43.460;25.744;2023-04-03T15:04:50;13.85;;;5.30;;
38693;SDS011;24447;43.460;25.744;2023-04-03T15:07:16;12.98;;;4.70;;
38693;SDS011;24447;43.460;25.744;2023-04-03T15:09:42;11.70;;;4.88;;
38693;SDS011;24447;43.460;25.744;2023-04-03T15:12:08;12.50;;;5.47;;
38693;SDS011;24447;43.460;25.744;2023-04-03T15:14:35;11.45;;;4.47;;
38693;SDS011;24447;43.460;25.744;2023-04-03T15:17:01;11.73;;;5.60;;
38693;SDS011;24447;43.460;25.744;2023-04-03T15:19:29;13.20;;;4.68;;
38693;SDS011;24447;43.460;25.744;2023-04-03T15:21:56;13.35;;;6.57;;
38693;SDS011;24447;43.460;25.744;2023-04-03T15:24:22;11.57;;;4.63;;
38693;SDS011;24447;43.460;25.744;2023-04-03T15:26:47;10.20;;;4.50;;
38693;SDS011;24447;43.460;25.744;2023-04-03T15:29:13;9.50;;;4.63;;
38693;SDS011;24447;43.460;25.744;2023-04-03T15:31:40;9.05;;;4.35;;
38693;SDS011;24447;43.460;25.744;2023-04-03T15:34:06;8.98;;;4.53;;
38693;SDS011;24447;43.460;25.744;2023-04-03T15:36:31;10.02;;;4.65;;
38693;SDS011;24447;43.460;25.744;2023-04-03T15:38:57;8.75;;;3.80;;
38693;SDS011;24447;43.460;25.744;2023-04-03T15:41:23;5.68;;;3.40;;
38693;SDS011;24447;43.460;25.744;2023-04-03T15:43:51;5.18;;;3.40;;
38693;SDS011;24447;43.460;25.744;2023-04-03T15:46:17;7.88;;;3.25;;
38693;SDS011;24447;43.460;25.744;2023-04-03T15:48:43;4.40;;;2.65;;
38693;SDS011;24447;43.460;25.744;2023-04-03T15:51:09;5.75;;;3.00;;
38693;SDS011;24447;43.460;25.744;2023-04-03T15:53:35;11.05;;;5.03;;
38693;SDS011;24447;43.460;25.744;2023-04-03T15:56:01;5.80;;;2.67;;
38693;SDS011;24447;43.460;25.744;2023-04-03T15:58:29;5.72;;;2.60;;
38693;SDS011;24447;43.460;25.744;2023-04-03T16:00:55;13.98;;;5.65;;
38693;SDS011;24447;43.460;25.744;2023-04-03T16:03:21;24.90;;;10.02;;
38693;SDS011;24447;43.460;25.744;2023-04-03T16:05:49;17.58;;;7.07;;
38693;SDS011;24447;43.460;25.744;2023-04-03T16:08:16;11.65;;;5.43;;
38693;SDS011;24447;43.460;25.744;2023-04-03T16:10:42;23.10;;;10.18;;
38693;SDS011;24447;43.460;25.744;2023-04-03T16:13:10;17.08;;;7.78;;
38693;SDS011;24447;43.460;25.744;2023-04-03T16:15:36;17.27;;;6.75;;
38693;SDS011;24447;43.460;25.744;2023-04-03T16:18:03;14.57;;;6.90;;
38693;SDS011;24447;43.460;25.744;2023-04-03T16:20:30;15.48;;;6.68;;
38693;SDS011;24447;43.460;25.744;2023-04-03T16:22:57;13.15;;;5.18;;
38693;SDS011;24447;43.460;25.744;2023-04-03T16:25:24;15.00;;;5.60;;
38693;SDS011;24447;43.460;25.744;2023-04-03T16:27:51;12.07;;;5.10;;
38693;SDS011;24447;43.460;25.744;2023-04-03T16:30:17;23.98;;;10.32;;
38693;SDS011;24447;43.460;25.744;2023-04-03T16:32:43;12.13;;;5.10;;
38693;SDS011;24447;43.460;25.744;2023-04-03T16:35:09;8.50;;;4.07;;